Shiloh, North Carolina
Current Conditions -  °F | °C
As of 1:54 PM on Thursday 18 Dec 2014 (Local Time) from KECG Reporting Station
Clear Clear  
Wind Chill: 51°   Ceiling: Unl
Heat Index: 51°   Visibility: 10mi
Dew Point: 26°   Wind: 0mph
Humidity: 38%   Direction: NA
Pressure: 30.1"   Gusts: NA
Location:  36.27°N, 76.08°W
Report Text: KECG 181854Z 00000KT 10SM CLR 11/M03 A3010 RMK AO2 SLP192 T01061033
Loading
Personal Weather Stations






























Interactive Weather Map New forecast layout! Learn more

10-Day Weather Forecast

Advertisements
Track Severe Weather on mobile